sensor_id;sensor_type;location;lat;lon;timestamp;P1;durP1;ratioP1;P2;durP2;ratioP2
56267;SDS011;42175;46.930;9.532;2023-08-06T00:00:21;4.55;;;3.47;;
56267;SDS011;42175;46.930;9.532;2023-08-06T00:02:48;4.80;;;3.30;;
56267;SDS011;42175;46.930;9.532;2023-08-06T00:05:14;7.07;;;3.13;;
56267;SDS011;42175;46.930;9.532;2023-08-06T00:07:45;4.72;;;3.17;;
56267;SDS011;42175;46.930;9.532;2023-08-06T00:10:12;4.22;;;3.08;;
56267;SDS011;42175;46.930;9.532;2023-08-06T00:12:37;7.03;;;3.33;;
56267;SDS011;42175;46.930;9.532;2023-08-06T00:15:03;4.68;;;3.47;;
56267;SDS011;42175;46.930;9.532;2023-08-06T00:17:29;5.43;;;3.30;;
56267;SDS011;42175;46.930;9.532;2023-08-06T00:19:55;5.15;;;2.90;;
56267;SDS011;42175;46.930;9.532;2023-08-06T00:22:21;5.43;;;3.40;;
56267;SDS011;42175;46.930;9.532;2023-08-06T00:24:46;6.93;;;3.95;;
56267;SDS011;42175;46.930;9.532;2023-08-06T00:27:12;6.28;;;3.50;;
56267;SDS011;42175;46.930;9.532;2023-08-06T00:29:38;6.50;;;3.40;;
56267;SDS011;42175;46.930;9.532;2023-08-06T00:32:04;6.97;;;3.28;;
56267;SDS011;42175;46.930;9.532;2023-08-06T00:34:29;6.20;;;3.17;;
56267;SDS011;42175;46.930;9.532;2023-08-06T00:36:55;7.57;;;3.30;;
56267;SDS011;42175;46.930;9.532;2023-08-06T00:39:21;5.72;;;3.72;;
56267;SDS011;42175;46.930;9.532;2023-08-06T00:41:47;4.63;;;3.20;;
56267;SDS011;42175;46.930;9.532;2023-08-06T00:44:12;5.80;;;3.55;;
56267;SDS011;42175;46.930;9.532;2023-08-06T00:46:38;5.07;;;2.95;;
56267;SDS011;42175;46.930;9.532;2023-08-06T00:49:04;6.75;;;3.40;;
56267;SDS011;42175;46.930;9.532;2023-08-06T00:51:30;6.32;;;3.42;;
56267;SDS011;42175;46.930;9.532;2023-08-06T00:53:57;5.55;;;3.90;;
56267;SDS011;42175;46.930;9.532;2023-08-06T00:56:23;5.15;;;3.45;;
56267;SDS011;42175;46.930;9.532;2023-08-06T00:58:50;5.03;;;3.80;;
56267;SDS011;42175;46.930;9.532;2023-08-06T01:01:17;3.90;;;2.97;;
56267;SDS011;42175;46.930;9.532;2023-08-06T01:03:42;5.13;;;3.10;;
56267;SDS011;42175;46.930;9.532;2023-08-06T01:06:08;3.45;;;3.03;;
56267;SDS011;42175;46.930;9.532;2023-08-06T01:14:41;6.80;;;3.80;;
56267;SDS011;42175;46.930;9.532;2023-08-06T01:17:19;5.65;;;3.22;;
56267;SDS011;42175;46.930;9.532;2023-08-06T01:19:46;7.30;;;3.17;;
56267;SDS011;42175;46.930;9.532;2023-08-06T01:22:11;5.95;;;3.53;;
56267;SDS011;42175;46.930;9.532;2023-08-06T01:24:37;4.90;;;2.95;;
56267;SDS011;42175;46.930;9.532;2023-08-06T01:27:09;5.05;;;3.38;;
56267;SDS011;42175;46.930;9.532;2023-08-06T01:30:12;4.22;;;2.90;;
56267;SDS011;42175;46.930;9.532;2023-08-06T01:32:43;4.60;;;2.92;;
56267;SDS011;42175;46.930;9.532;2023-08-06T01:35:11;6.88;;;2.90;;
56267;SDS011;42175;46.930;9.532;2023-08-06T01:37:39;4.70;;;3.13;;
56267;SDS011;42175;46.930;9.532;2023-08-06T01:40:12;4.47;;;3.05;;
56267;SDS011;42175;46.930;9.532;2023-08-06T01:42:39;3.70;;;3.30;;
56267;SDS011;42175;46.930;9.532;2023-08-06T01:45:08;4.75;;;3.08;;
56267;SDS011;42175;46.930;9.532;2023-08-06T01:47:35;5.00;;;2.72;;
56267;SDS011;42175;46.930;9.532;2023-08-06T01:50:01;4.55;;;3.40;;
56267;SDS011;42175;46.930;9.532;2023-08-06T01:52:27;5.30;;;3.20;;
56267;SDS011;42175;46.930;9.532;2023-08-06T01:54:53;6.00;;;3.03;;
56267;SDS011;42175;46.930;9.532;2023-08-06T01:57:20;4.10;;;2.85;;
56267;SDS011;42175;46.930;9.532;2023-08-06T01:59:45;6.75;;;3.30;;
56267;SDS011;42175;46.930;9.532;2023-08-06T02:02:11;4.20;;;3.72;;
56267;SDS011;42175;46.930;9.532;2023-08-06T02:04:37;4.38;;;3.83;;
56267;SDS011;42175;46.930;9.532;2023-08-06T02:07:03;7.25;;;3.60;;
56267;SDS011;42175;46.930;9.532;2023-08-06T02:09:29;3.38;;;2.83;;
56267;SDS011;42175;46.930;9.532;2023-08-06T02:11:55;3.70;;;3.05;;
56267;SDS011;42175;46.930;9.532;2023-08-06T02:14:21;4.47;;;3.00;;
56267;SDS011;42175;46.930;9.532;2023-08-06T02:16:46;6.85;;;3.08;;
56267;SDS011;42175;46.930;9.532;2023-08-06T02:19:12;4.65;;;3.45;;
56267;SDS011;42175;46.930;9.532;2023-08-06T02:21:38;4.30;;;3.35;;
56267;SDS011;42175;46.930;9.532;2023-08-06T02:24:04;4.05;;;3.03;;
56267;SDS011;42175;46.930;9.532;2023-08-06T02:26:29;3.60;;;3.00;;
56267;SDS011;42175;46.930;9.532;2023-08-06T02:28:55;5.78;;;2.63;;
56267;SDS011;42175;46.930;9.532;2023-08-06T02:31:21;6.20;;;2.88;;
56267;SDS011;42175;46.930;9.532;2023-08-06T02:33:47;5.72;;;2.90;;
56267;SDS011;42175;46.930;9.532;2023-08-06T02:36:13;3.80;;;2.80;;
56267;SDS011;42175;46.930;9.532;2023-08-06T02:38:39;3.47;;;2.65;;
56267;SDS011;42175;46.930;9.532;2023-08-06T02:41:04;4.38;;;2.75;;
56267;SDS011;42175;46.930;9.532;2023-08-06T02:43:30;6.47;;;3.05;;
56267;SDS011;42175;46.930;9.532;2023-08-06T02:45:58;3.33;;;2.55;;
56267;SDS011;42175;46.930;9.532;2023-08-06T02:48:27;5.43;;;3.45;;
56267;SDS011;42175;46.930;9.532;2023-08-06T02:50:53;5.65;;;2.80;;
56267;SDS011;42175;46.930;9.532;2023-08-06T02:53:22;6.45;;;2.83;;
56267;SDS011;42175;46.930;9.532;2023-08-06T02:55:48;5.15;;;3.00;;
56267;SDS011;42175;46.930;9.532;2023-08-06T02:58:14;5.57;;;2.92;;
56267;SDS011;42175;46.930;9.532;2023-08-06T03:00:40;3.53;;;2.72;;
56267;SDS011;42175;46.930;9.532;2023-08-06T03:03:07;6.15;;;2.92;;
56267;SDS011;42175;46.930;9.532;2023-08-06T03:05:32;3.72;;;2.95;;
56267;SDS011;42175;46.930;9.532;2023-08-06T03:07:58;4.05;;;2.60;;
56267;SDS011;42175;46.930;9.532;2023-08-06T03:10:24;3.88;;;2.78;;
56267;SDS011;42175;46.930;9.532;2023-08-06T03:12:50;3.97;;;2.70;;
56267;SDS011;42175;46.930;9.532;2023-08-06T03:15:15;4.05;;;2.80;;
56267;SDS011;42175;46.930;9.532;2023-08-06T03:17:41;4.13;;;2.75;;
56267;SDS011;42175;46.930;9.532;2023-08-06T03:20:07;3.17;;;2.47;;
56267;SDS011;42175;46.930;9.532;2023-08-06T03:22:33;3.75;;;2.60;;
56267;SDS011;42175;46.930;9.532;2023-08-06T03:24:59;5.82;;;2.63;;
56267;SDS011;42175;46.930;9.532;2023-08-06T03:27:24;3.85;;;2.80;;
56267;SDS011;42175;46.930;9.532;2023-08-06T03:29:50;19.70;;;2.75;;
56267;SDS011;42175;46.930;9.532;2023-08-06T03:32:16;9.48;;;3.50;;
56267;SDS011;42175;46.930;9.532;2023-08-06T03:34:42;3.38;;;2.60;;
56267;SDS011;42175;46.930;9.532;2023-08-06T03:37:08;3.45;;;2.67;;
56267;SDS011;42175;46.930;9.532;2023-08-06T03:39:33;5.35;;;2.63;;
56267;SDS011;42175;46.930;9.532;2023-08-06T03:41:59;10.80;;;2.92;;
56267;SDS011;42175;46.930;9.532;2023-08-06T03:44:25;4.07;;;2.67;;
56267;SDS011;42175;46.930;9.532;2023-08-06T03:46:52;4.20;;;2.65;;
56267;SDS011;42175;46.930;9.532;2023-08-06T03:49:17;4.93;;;2.72;;
56267;SDS011;42175;46.930;9.532;2023-08-06T03:51:43;4.18;;;2.72;;
56267;SDS011;42175;46.930;9.532;2023-08-06T03:54:09;4.00;;;2.28;;
56267;SDS011;42175;46.930;9.532;2023-08-06T03:56:35;3.50;;;2.60;;
56267;SDS011;42175;46.930;9.532;2023-08-06T03:59:01;3.38;;;2.17;;
56267;SDS011;42175;46.930;9.532;2023-08-06T04:01:26;4.53;;;2.45;;
56267;SDS011;42175;46.930;9.532;2023-08-06T04:03:52;5.53;;;2.40;;
56267;SDS011;42175;46.930;9.532;2023-08-06T04:06:18;3.72;;;2.47;;
56267;SDS011;42175;46.930;9.532;2023-08-06T04:08:44;4.65;;;2.50;;
56267;SDS011;42175;46.930;9.532;2023-08-06T04:11:09;3.00;;;2.25;;
56267;SDS011;42175;46.930;9.532;2023-08-06T04:13:35;4.88;;;2.60;;
56267;SDS011;42175;46.930;9.532;2023-08-06T04:16:01;3.92;;;2.42;;
56267;SDS011;42175;46.930;9.532;2023-08-06T04:18:28;5.47;;;2.53;;
56267;SDS011;42175;46.930;9.532;2023-08-06T04:20:53;3.60;;;2.28;;
56267;SDS011;42175;46.930;9.532;2023-08-06T04:23:20;4.18;;;2.55;;
56267;SDS011;42175;46.930;9.532;2023-08-06T04:25:46;3.17;;;2.20;;
56267;SDS011;42175;46.930;9.532;2023-08-06T04:28:12;4.38;;;2.25;;
56267;SDS011;42175;46.930;9.532;2023-08-06T04:30:37;5.90;;;2.78;;
56267;SDS011;42175;46.930;9.532;2023-08-06T04:33:03;6.30;;;2.63;;
56267;SDS011;42175;46.930;9.532;2023-08-06T04:35:29;3.83;;;2.53;;
56267;SDS011;42175;46.930;9.532;2023-08-06T04:37:55;4.38;;;2.40;;
56267;SDS011;42175;46.930;9.532;2023-08-06T04:40:20;3.22;;;2.50;;
56267;SDS011;42175;46.930;9.532;2023-08-06T04:42:46;4.47;;;2.63;;
56267;SDS011;42175;46.930;9.532;2023-08-06T04:45:12;6.85;;;2.30;;
56267;SDS011;42175;46.930;9.532;2023-08-06T04:47:38;5.03;;;2.25;;
56267;SDS011;42175;46.930;9.532;2023-08-06T04:50:04;6.47;;;2.63;;
56267;SDS011;42175;46.930;9.532;2023-08-06T04:52:30;5.85;;;2.50;;
56267;SDS011;42175;46.930;9.532;2023-08-06T04:54:57;13.25;;;2.72;;
56267;SDS011;42175;46.930;9.532;2023-08-06T04:57:23;7.53;;;2.50;;
56267;SDS011;42175;46.930;9.532;2023-08-06T04:59:49;4.95;;;2.42;;
56267;SDS011;42175;46.930;9.532;2023-08-06T05:02:15;2.78;;;2.30;;
56267;SDS011;42175;46.930;9.532;2023-08-06T05:04:41;3.65;;;2.55;;
56267;SDS011;42175;46.930;9.532;2023-08-06T05:07:06;3.45;;;2.40;;
56267;SDS011;42175;46.930;9.532;2023-08-06T05:09:32;5.43;;;2.08;;
56267;SDS011;42175;46.930;9.532;2023-08-06T05:12:00;3.50;;;2.17;;
56267;SDS011;42175;46.930;9.532;2023-08-06T05:14:27;3.08;;;2.00;;
56267;SDS011;42175;46.930;9.532;2023-08-06T05:16:53;3.63;;;2.42;;
56267;SDS011;42175;46.930;9.532;2023-08-06T05:19:18;5.97;;;2.20;;
56267;SDS011;42175;46.930;9.532;2023-08-06T05:21:44;4.38;;;2.28;;
56267;SDS011;42175;46.930;9.532;2023-08-06T05:24:10;4.75;;;2.00;;
56267;SDS011;42175;46.930;9.532;2023-08-06T05:26:35;2.88;;;1.98;;
56267;SDS011;42175;46.930;9.532;2023-08-06T05:29:01;5.88;;;2.15;;
56267;SDS011;42175;46.930;9.532;2023-08-06T05:31:27;2.88;;;2.33;;
56267;SDS011;42175;46.930;9.532;2023-08-06T05:33:54;2.67;;;1.88;;
56267;SDS011;42175;46.930;9.532;2023-08-06T05:36:20;4.32;;;1.90;;
56267;SDS011;42175;46.930;9.532;2023-08-06T05:38:46;3.20;;;2.15;;
56267;SDS011;42175;46.930;9.532;2023-08-06T05:41:12;3.53;;;2.30;;
56267;SDS011;42175;46.930;9.532;2023-08-06T05:43:38;4.38;;;1.70;;
56267;SDS011;42175;46.930;9.532;2023-08-06T05:46:04;4.88;;;2.28;;
56267;SDS011;42175;46.930;9.532;2023-08-06T05:48:30;3.38;;;2.42;;
56267;SDS011;42175;46.930;9.532;2023-08-06T05:50:57;3.63;;;2.08;;
56267;SDS011;42175;46.930;9.532;2023-08-06T05:53:24;6.80;;;2.42;;
56267;SDS011;42175;46.930;9.532;2023-08-06T05:55:50;3.58;;;2.40;;
56267;SDS011;42175;46.930;9.532;2023-08-06T05:58:15;3.55;;;2.45;;
56267;SDS011;42175;46.930;9.532;2023-08-06T06:00:41;4.63;;;2.47;;
56267;SDS011;42175;46.930;9.532;2023-08-06T06:03:07;4.20;;;2.67;;
56267;SDS011;42175;46.930;9.532;2023-08-06T06:05:32;5.40;;;3.00;;
56267;SDS011;42175;46.930;9.532;2023-08-06T06:07:58;4.93;;;2.63;;
56267;SDS011;42175;46.930;9.532;2023-08-06T06:10:24;5.28;;;3.38;;
56267;SDS011;42175;46.930;9.532;2023-08-06T06:12:49;6.07;;;2.83;;
56267;SDS011;42175;46.930;9.532;2023-08-06T06:15:15;4.80;;;2.70;;
56267;SDS011;42175;46.930;9.532;2023-08-06T06:17:41;5.05;;;2.53;;
56267;SDS011;42175;46.930;9.532;2023-08-06T06:20:07;5.25;;;2.67;;
56267;SDS011;42175;46.930;9.532;2023-08-06T06:22:32;5.50;;;2.83;;
56267;SDS011;42175;46.930;9.532;2023-08-06T06:24:58;5.75;;;3.22;;
56267;SDS011;42175;46.930;9.532;2023-08-06T06:27:24;5.57;;;2.65;;
56267;SDS011;42175;46.930;9.532;2023-08-06T06:29:49;5.25;;;2.50;;
56267;SDS011;42175;46.930;9.532;2023-08-06T06:32:17;5.25;;;2.80;;
56267;SDS011;42175;46.930;9.532;2023-08-06T06:34:43;6.03;;;3.13;;
56267;SDS011;42175;46.930;9.532;2023-08-06T06:37:08;5.20;;;2.75;;
56267;SDS011;42175;46.930;9.532;2023-08-06T06:39:34;5.60;;;3.00;;
56267;SDS011;42175;46.930;9.532;2023-08-06T06:42:00;5.78;;;2.85;;
56267;SDS011;42175;46.930;9.532;2023-08-06T06:44:26;6.45;;;3.17;;
56267;SDS011;42175;46.930;9.532;2023-08-06T06:46:51;4.95;;;3.30;;
56267;SDS011;42175;46.930;9.532;2023-08-06T06:49:17;5.07;;;2.72;;
56267;SDS011;42175;46.930;9.532;2023-08-06T06:51:43;11.93;;;2.75;;
56267;SDS011;42175;46.930;9.532;2023-08-06T06:54:08;12.45;;;3.88;;
56267;SDS011;42175;46.930;9.532;2023-08-06T06:56:34;9.48;;;3.55;;
56267;SDS011;42175;46.930;9.532;2023-08-06T06:58:59;7.90;;;3.25;;
56267;SDS011;42175;46.930;9.532;2023-08-06T07:01:25;5.53;;;3.47;;
56267;SDS011;42175;46.930;9.532;2023-08-06T07:03:51;6.47;;;3.20;;
56267;SDS011;42175;46.930;9.532;2023-08-06T07:06:17;5.20;;;3.35;;
56267;SDS011;42175;46.930;9.532;2023-08-06T07:08:44;6.68;;;3.50;;
56267;SDS011;42175;46.930;9.532;2023-08-06T07:11:10;6.80;;;3.00;;
56267;SDS011;42175;46.930;9.532;2023-08-06T07:13:36;6.78;;;3.17;;
56267;SDS011;42175;46.930;9.532;2023-08-06T07:16:01;7.05;;;3.30;;
56267;SDS011;42175;46.930;9.532;2023-08-06T07:18:27;6.85;;;3.35;;
56267;SDS011;42175;46.930;9.532;2023-08-06T07:20:54;9.70;;;3.30;;
56267;SDS011;42175;46.930;9.532;2023-08-06T07:23:20;5.13;;;2.90;;
56267;SDS011;42175;46.930;9.532;2023-08-06T07:25:47;6.40;;;3.30;;
56267;SDS011;42175;46.930;9.532;2023-08-06T07:28:13;5.25;;;2.97;;
56267;SDS011;42175;46.930;9.532;2023-08-06T07:30:40;5.03;;;3.17;;
56267;SDS011;42175;46.930;9.532;2023-08-06T07:33:06;4.72;;;3.20;;
56267;SDS011;42175;46.930;9.532;2023-08-06T07:35:32;4.78;;;2.85;;
56267;SDS011;42175;46.930;9.532;2023-08-06T07:37:58;4.80;;;2.42;;
56267;SDS011;42175;46.930;9.532;2023-08-06T07:40:24;4.32;;;2.70;;
56267;SDS011;42175;46.930;9.532;2023-08-06T07:42:50;4.43;;;2.50;;
56267;SDS011;42175;46.930;9.532;2023-08-06T07:45:15;5.15;;;2.72;;
56267;SDS011;42175;46.930;9.532;2023-08-06T07:47:41;6.93;;;2.80;;
56267;SDS011;42175;46.930;9.532;2023-08-06T07:50:08;7.25;;;2.47;;
56267;SDS011;42175;46.930;9.532;2023-08-06T07:52:34;7.90;;;2.65;;
56267;SDS011;42175;46.930;9.532;2023-08-06T07:55:01;5.32;;;1.95;;
56267;SDS011;42175;46.930;9.532;2023-08-06T07:57:30;3.30;;;2.05;;
56267;SDS011;42175;46.930;9.532;2023-08-06T07:59:59;4.70;;;2.03;;
56267;SDS011;42175;46.930;9.532;2023-08-06T08:02:26;4.70;;;2.03;;
56267;SDS011;42175;46.930;9.532;2023-08-06T08:04:52;3.72;;;1.90;;
56267;SDS011;42175;46.930;9.532;2023-08-06T08:07:18;5.30;;;2.05;;
56267;SDS011;42175;46.930;9.532;2023-08-06T08:09:44;4.28;;;2.00;;
56267;SDS011;42175;46.930;9.532;2023-08-06T08:12:10;4.80;;;1.70;;
56267;SDS011;42175;46.930;9.532;2023-08-06T08:14:35;3.15;;;2.13;;
56267;SDS011;42175;46.930;9.532;2023-08-06T08:17:04;3.05;;;1.67;;
56267;SDS011;42175;46.930;9.532;2023-08-06T08:19:31;2.83;;;1.23;;
56267;SDS011;42175;46.930;9.532;2023-08-06T08:21:57;2.28;;;1.35;;
56267;SDS011;42175;46.930;9.532;2023-08-06T08:24:23;3.45;;;1.20;;
56267;SDS011;42175;46.930;9.532;2023-08-06T08:26:50;2.45;;;1.48;;
56267;SDS011;42175;46.930;9.532;2023-08-06T08:29:17;2.88;;;1.60;;
56267;SDS011;42175;46.930;9.532;2023-08-06T08:31:43;3.65;;;2.20;;
56267;SDS011;42175;46.930;9.532;2023-08-06T08:34:09;5.28;;;1.70;;
56267;SDS011;42175;46.930;9.532;2023-08-06T08:36:35;6.38;;;1.33;;
56267;SDS011;42175;46.930;9.532;2023-08-06T08:39:01;4.20;;;1.70;;
56267;SDS011;42175;46.930;9.532;2023-08-06T08:41:30;2.60;;;1.48;;
56267;SDS011;42175;46.930;9.532;2023-08-06T08:43:56;4.40;;;1.33;;
56267;SDS011;42175;46.930;9.532;2023-08-06T08:46:26;3.45;;;1.02;;
56267;SDS011;42175;46.930;9.532;2023-08-06T08:48:54;2.42;;;1.38;;
56267;SDS011;42175;46.930;9.532;2023-08-06T08:51:20;3.83;;;1.33;;
56267;SDS011;42175;46.930;9.532;2023-08-06T08:53:48;3.65;;;1.30;;
56267;SDS011;42175;46.930;9.532;2023-08-06T08:56:17;2.45;;;1.08;;
56267;SDS011;42175;46.930;9.532;2023-08-06T08:58:44;3.45;;;1.05;;
56267;SDS011;42175;46.930;9.532;2023-08-06T09:01:10;3.63;;;1.13;;
56267;SDS011;42175;46.930;9.532;2023-08-06T09:03:37;4.43;;;1.20;;
56267;SDS011;42175;46.930;9.532;2023-08-06T09:06:04;3.65;;;1.17;;
56267;SDS011;42175;46.930;9.532;2023-08-06T09:08:33;2.28;;;0.82;;
56267;SDS011;42175;46.930;9.532;2023-08-06T09:11:02;3.80;;;1.20;;
56267;SDS011;42175;46.930;9.532;2023-08-06T09:13:35;1.95;;;0.80;;
56267;SDS011;42175;46.930;9.532;2023-08-06T09:16:03;3.78;;;1.08;;
56267;SDS011;42175;46.930;9.532;2023-08-06T09:18:29;9.25;;;1.00;;
56267;SDS011;42175;46.930;9.532;2023-08-06T09:20:56;5.22;;;0.95;;
56267;SDS011;42175;46.930;9.532;2023-08-06T09:23:29;2.90;;;0.90;;
56267;SDS011;42175;46.930;9.532;2023-08-06T09:25:56;3.30;;;1.00;;
56267;SDS011;42175;46.930;9.532;2023-08-06T09:28:22;3.72;;;0.90;;
56267;SDS011;42175;46.930;9.532;2023-08-06T09:30:49;7.00;;;1.50;;
56267;SDS011;42175;46.930;9.532;2023-08-06T09:33:19;10.70;;;1.05;;
56267;SDS011;42175;46.930;9.532;2023-08-06T09:35:45;10.27;;;1.65;;
56267;SDS011;42175;46.930;9.532;2023-08-06T09:38:12;6.45;;;1.77;;
56267;SDS011;42175;46.930;9.532;2023-08-06T09:40:38;5.63;;;1.20;;
56267;SDS011;42175;46.930;9.532;2023-08-06T09:43:04;8.10;;;1.40;;
56267;SDS011;42175;46.930;9.532;2023-08-06T09:45:32;4.50;;;1.10;;
56267;SDS011;42175;46.930;9.532;2023-08-06T09:47:59;5.03;;;1.30;;
56267;SDS011;42175;46.930;9.532;2023-08-06T09:50:31;4.25;;;0.90;;
56267;SDS011;42175;46.930;9.532;2023-08-06T09:53:02;7.28;;;1.13;;
56267;SDS011;42175;46.930;9.532;2023-08-06T09:55:30;8.23;;;0.82;;
56267;SDS011;42175;46.930;9.532;2023-08-06T09:57:58;1.95;;;0.80;;
56267;SDS011;42175;46.930;9.532;2023-08-06T10:00:24;4.55;;;0.65;;
56267;SDS011;42175;46.930;9.532;2023-08-06T10:02:51;2.63;;;0.73;;
56267;SDS011;42175;46.930;9.532;2023-08-06T10:05:23;2.08;;;0.70;;
56267;SDS011;42175;46.930;9.532;2023-08-06T10:07:50;2.20;;;0.70;;
56267;SDS011;42175;46.930;9.532;2023-08-06T10:10:17;2.00;;;0.70;;
56267;SDS011;42175;46.930;9.532;2023-08-06T10:12:51;4.00;;;0.68;;
56267;SDS011;42175;46.930;9.532;2023-08-06T10:15:21;2.20;;;0.73;;
56267;SDS011;42175;46.930;9.532;2023-08-06T10:17:50;0.98;;;0.60;;
56267;SDS011;42175;46.930;9.532;2023-08-06T10:20:19;2.30;;;0.50;;
56267;SDS011;42175;46.930;9.532;2023-08-06T10:22:59;1.65;;;0.60;;
56267;SDS011;42175;46.930;9.532;2023-08-06T10:25:32;2.05;;;0.63;;
56267;SDS011;42175;46.930;9.532;2023-08-06T10:28:11;2.03;;;0.60;;
56267;SDS011;42175;46.930;9.532;2023-08-06T10:30:46;1.45;;;0.60;;
56267;SDS011;42175;46.930;9.532;2023-08-06T10:33:13;3.90;;;0.50;;
56267;SDS011;42175;46.930;9.532;2023-08-06T10:35:45;2.50;;;0.93;;
56267;SDS011;42175;46.930;9.532;2023-08-06T10:38:16;1.88;;;0.60;;
56267;SDS011;42175;46.930;9.532;2023-08-06T10:43:34;3.55;;;0.85;;
56267;SDS011;42175;46.930;9.532;2023-08-06T10:46:09;1.92;;;0.50;;
56267;SDS011;42175;46.930;9.532;2023-08-06T10:48:37;5.15;;;0.50;;
56267;SDS011;42175;46.930;9.532;2023-08-06T10:51:08;3.33;;;0.68;;
56267;SDS011;42175;46.930;9.532;2023-08-06T10:53:36;7.20;;;0.93;;
56267;SDS011;42175;46.930;9.532;2023-08-06T10:56:11;4.00;;;0.60;;
56267;SDS011;42175;46.930;9.532;2023-08-06T10:58:39;4.82;;;0.77;;
56267;SDS011;42175;46.930;9.532;2023-08-06T11:01:06;3.05;;;0.50;;
56267;SDS011;42175;46.930;9.532;2023-08-06T11:03:32;4.20;;;0.60;;
56267;SDS011;42175;46.930;9.532;2023-08-06T11:05:59;3.28;;;0.63;;
56267;SDS011;42175;46.930;9.532;2023-08-06T11:10:52;1.90;;;0.70;;
56267;SDS011;42175;46.930;9.532;2023-08-06T11:13:19;1.48;;;0.60;;
56267;SDS011;42175;46.930;9.532;2023-08-06T11:15:45;2.97;;;1.00;;
56267;SDS011;42175;46.930;9.532;2023-08-06T11:18:11;1.80;;;0.80;;
56267;SDS011;42175;46.930;9.532;2023-08-06T11:20:38;4.05;;;1.05;;
56267;SDS011;42175;46.930;9.532;2023-08-06T11:23:04;2.03;;;0.63;;
56267;SDS011;42175;46.930;9.532;2023-08-06T11:25:31;1.35;;;0.60;;
56267;SDS011;42175;46.930;9.532;2023-08-06T11:28:01;1.25;;;0.60;;
56267;SDS011;42175;46.930;9.532;2023-08-06T11:30:26;0.68;;;0.50;;
56267;SDS011;42175;46.930;9.532;2023-08-06T11:32:52;2.78;;;0.68;;
56267;SDS011;42175;46.930;9.532;2023-08-06T11:35:18;2.55;;;0.70;;
56267;SDS011;42175;46.930;9.532;2023-08-06T11:37:44;1.42;;;0.52;;
56267;SDS011;42175;46.930;9.532;2023-08-06T11:40:11;1.25;;;0.50;;
56267;SDS011;42175;46.930;9.532;2023-08-06T11:42:37;2.20;;;0.60;;
56267;SDS011;42175;46.930;9.532;2023-08-06T11:45:03;1.75;;;0.50;;
56267;SDS011;42175;46.930;9.532;2023-08-06T11:47:30;0.80;;;0.50;;
56267;SDS011;42175;46.930;9.532;2023-08-06T11:49:56;5.97;;;0.60;;
56267;SDS011;42175;46.930;9.532;2023-08-06T11:52:23;1.85;;;0.63;;
56267;SDS011;42175;46.930;9.532;2023-08-06T11:55:02;1.25;;;0.45;;
56267;SDS011;42175;46.930;9.532;2023-08-06T11:57:40;12.88;;;0.70;;
56267;SDS011;42175;46.930;9.532;2023-08-06T12:00:10;8.15;;;0.60;;
56267;SDS011;42175;46.930;9.532;2023-08-06T12:02:40;3.15;;;0.80;;
56267;SDS011;42175;46.930;9.532;2023-08-06T12:05:10;3.20;;;0.40;;
56267;SDS011;42175;46.930;9.532;2023-08-06T12:07:37;7.43;;;1.33;;
56267;SDS011;42175;46.930;9.532;2023-08-06T12:10:05;5.15;;;0.70;;
56267;SDS011;42175;46.930;9.532;2023-08-06T12:12:31;0.85;;;0.50;;
56267;SDS011;42175;46.930;9.532;2023-08-06T12:14:56;3.30;;;0.50;;
56267;SDS011;42175;46.930;9.532;2023-08-06T12:17:23;2.60;;;0.47;;
56267;SDS011;42175;46.930;9.532;2023-08-06T12:19:49;1.27;;;0.73;;
56267;SDS011;42175;46.930;9.532;2023-08-06T12:22:15;4.80;;;0.60;;
56267;SDS011;42175;46.930;9.532;2023-08-06T12:24:44;2.60;;;0.52;;
56267;SDS011;42175;46.930;9.532;2023-08-06T12:27:11;1.10;;;0.60;;
56267;SDS011;42175;46.930;9.532;2023-08-06T12:29:41;3.33;;;0.50;;
56267;SDS011;42175;46.930;9.532;2023-08-06T12:32:12;0.80;;;0.40;;
56267;SDS011;42175;46.930;9.532;2023-08-06T12:34:38;0.35;;;0.30;;
56267;SDS011;42175;46.930;9.532;2023-08-06T12:37:05;0.50;;;0.40;;
56267;SDS011;42175;46.930;9.532;2023-08-06T12:39:35;0.40;;;0.40;;
56267;SDS011;42175;46.930;9.532;2023-08-06T12:42:02;1.17;;;0.50;;
56267;SDS011;42175;46.930;9.532;2023-08-06T12:44:29;0.50;;;0.47;;
56267;SDS011;42175;46.930;9.532;2023-08-06T12:46:55;0.88;;;0.32;;
56267;SDS011;42175;46.930;9.532;2023-08-06T12:49:21;0.43;;;0.40;;
56267;SDS011;42175;46.930;9.532;2023-08-06T12:51:51;0.80;;;0.55;;
56267;SDS011;42175;46.930;9.532;2023-08-06T12:54:18;1.15;;;0.50;;
56267;SDS011;42175;46.930;9.532;2023-08-06T12:56:45;2.85;;;0.50;;
56267;SDS011;42175;46.930;9.532;2023-08-06T12:59:13;1.80;;;0.50;;
56267;SDS011;42175;46.930;9.532;2023-08-06T13:01:40;1.85;;;0.40;;
56267;SDS011;42175;46.930;9.532;2023-08-06T13:04:05;1.73;;;0.50;;
56267;SDS011;42175;46.930;9.532;2023-08-06T13:06:31;1.20;;;0.43;;
56267;SDS011;42175;46.930;9.532;2023-08-06T13:09:08;1.52;;;0.50;;
56267;SDS011;42175;46.930;9.532;2023-08-06T13:11:35;0.40;;;0.40;;
56267;SDS011;42175;46.930;9.532;2023-08-06T13:14:06;1.30;;;0.47;;
56267;SDS011;42175;46.930;9.532;2023-08-06T13:16:34;0.57;;;0.50;;
56267;SDS011;42175;46.930;9.532;2023-08-06T13:19:05;1.35;;;0.50;;
56267;SDS011;42175;46.930;9.532;2023-08-06T13:21:32;0.40;;;0.40;;
56267;SDS011;42175;46.930;9.532;2023-08-06T13:23:59;1.05;;;0.50;;
56267;SDS011;42175;46.930;9.532;2023-08-06T13:26:27;0.60;;;0.40;;
56267;SDS011;42175;46.930;9.532;2023-08-06T13:28:54;2.10;;;0.40;;
56267;SDS011;42175;46.930;9.532;2023-08-06T13:31:21;0.30;;;0.30;;
56267;SDS011;42175;46.930;9.532;2023-08-06T13:33:47;0.68;;;0.40;;
56267;SDS011;42175;46.930;9.532;2023-08-06T13:36:14;1.15;;;0.50;;
56267;SDS011;42175;46.930;9.532;2023-08-06T13:38:43;1.08;;;0.47;;
56267;SDS011;42175;46.930;9.532;2023-08-06T13:41:09;0.40;;;0.40;;
56267;SDS011;42175;46.930;9.532;2023-08-06T13:43:34;0.65;;;0.43;;
56267;SDS011;42175;46.930;9.532;2023-08-06T13:46:00;0.63;;;0.50;;
56267;SDS011;42175;46.930;9.532;2023-08-06T13:48:26;0.50;;;0.40;;
56267;SDS011;42175;46.930;9.532;2023-08-06T13:50:52;1.05;;;0.80;;
56267;SDS011;42175;46.930;9.532;2023-08-06T13:53:17;0.40;;;0.40;;
56267;SDS011;42175;46.930;9.532;2023-08-06T13:55:43;0.70;;;0.50;;
56267;SDS011;42175;46.930;9.532;2023-08-06T13:58:09;0.43;;;0.32;;
56267;SDS011;42175;46.930;9.532;2023-08-06T14:00:37;0.75;;;0.43;;
56267;SDS011;42175;46.930;9.532;2023-08-06T14:03:03;3.30;;;0.55;;
56267;SDS011;42175;46.930;9.532;2023-08-06T14:05:29;3.13;;;0.50;;
56267;SDS011;42175;46.930;9.532;2023-08-06T14:07:54;1.55;;;0.50;;
56267;SDS011;42175;46.930;9.532;2023-08-06T14:10:20;0.40;;;0.40;;
56267;SDS011;42175;46.930;9.532;2023-08-06T14:12:46;0.40;;;0.40;;
56267;SDS011;42175;46.930;9.532;2023-08-06T14:15:11;4.28;;;0.50;;
56267;SDS011;42175;46.930;9.532;2023-08-06T14:17:37;3.80;;;0.70;;
56267;SDS011;42175;46.930;9.532;2023-08-06T14:20:03;1.70;;;0.50;;
56267;SDS011;42175;46.930;9.532;2023-08-06T14:22:30;1.42;;;0.55;;
56267;SDS011;42175;46.930;9.532;2023-08-06T14:24:56;1.92;;;0.70;;
56267;SDS011;42175;46.930;9.532;2023-08-06T14:27:23;1.50;;;0.45;;
56267;SDS011;42175;46.930;9.532;2023-08-06T14:29:48;0.57;;;0.50;;
56267;SDS011;42175;46.930;9.532;2023-08-06T14:32:14;0.50;;;0.40;;
56267;SDS011;42175;46.930;9.532;2023-08-06T14:34:42;4.00;;;0.50;;
56267;SDS011;42175;46.930;9.532;2023-08-06T14:37:08;0.40;;;0.40;;
56267;SDS011;42175;46.930;9.532;2023-08-06T14:39:34;1.02;;;0.70;;
56267;SDS011;42175;46.930;9.532;2023-08-06T14:42:00;1.27;;;0.55;;
56267;SDS011;42175;46.930;9.532;2023-08-06T14:44:26;0.77;;;0.57;;
56267;SDS011;42175;46.930;9.532;2023-08-06T14:46:51;3.92;;;1.40;;
56267;SDS011;42175;46.930;9.532;2023-08-06T14:49:17;0.65;;;0.60;;
56267;SDS011;42175;46.930;9.532;2023-08-06T14:51:42;5.18;;;0.95;;
56267;SDS011;42175;46.930;9.532;2023-08-06T14:54:08;2.15;;;0.68;;
56267;SDS011;42175;46.930;9.532;2023-08-06T14:56:34;1.17;;;0.60;;